sensor_id;sensor_type;location;lat;lon;timestamp;P1;durP1;ratioP1;P2;durP2;ratioP2
67798;SDS011;54596;43.216;27.904;2022-10-15T00:02:08;9.40;;;2.40;;
67798;SDS011;54596;43.216;27.904;2022-10-15T00:04:34;10.63;;;2.50;;
67798;SDS011;54596;43.216;27.904;2022-10-15T00:06:59;7.63;;;2.30;;
67798;SDS011;54596;43.216;27.904;2022-10-15T00:09:25;5.88;;;2.20;;
67798;SDS011;54596;43.216;27.904;2022-10-15T00:11:50;6.65;;;2.25;;
67798;SDS011;54596;43.216;27.904;2022-10-15T00:14:16;9.32;;;2.20;;
67798;SDS011;54596;43.216;27.904;2022-10-15T00:16:41;9.52;;;2.40;;
67798;SDS011;54596;43.216;27.904;2022-10-15T00:19:07;5.85;;;2.22;;
67798;SDS011;54596;43.216;27.904;2022-10-15T00:21:33;6.95;;;2.33;;
67798;SDS011;54596;43.216;27.904;2022-10-15T00:23:59;9.25;;;2.40;;
67798;SDS011;54596;43.216;27.904;2022-10-15T00:26:25;8.40;;;2.30;;
67798;SDS011;54596;43.216;27.904;2022-10-15T00:28:53;10.18;;;2.40;;
67798;SDS011;54596;43.216;27.904;2022-10-15T00:31:19;8.25;;;2.40;;
67798;SDS011;54596;43.216;27.904;2022-10-15T00:33:47;8.85;;;2.80;;
67798;SDS011;54596;43.216;27.904;2022-10-15T00:36:15;8.80;;;2.50;;
67798;SDS011;54596;43.216;27.904;2022-10-15T00:38:42;7.63;;;2.55;;
67798;SDS011;54596;43.216;27.904;2022-10-15T00:41:11;8.25;;;2.60;;
67798;SDS011;54596;43.216;27.904;2022-10-15T00:43:49;7.82;;;2.53;;
67798;SDS011;54596;43.216;27.904;2022-10-15T00:46:24;9.95;;;2.42;;
67798;SDS011;54596;43.216;27.904;2022-10-15T00:48:56;8.07;;;2.40;;
67798;SDS011;54596;43.216;27.904;2022-10-15T00:51:25;8.05;;;2.80;;
67798;SDS011;54596;43.216;27.904;2022-10-15T00:53:55;9.77;;;2.53;;
67798;SDS011;54596;43.216;27.904;2022-10-15T00:56:20;7.78;;;2.58;;
67798;SDS011;54596;43.216;27.904;2022-10-15T00:58:48;11.75;;;2.78;;
67798;SDS011;54596;43.216;27.904;2022-10-15T01:01:15;8.88;;;2.90;;
67798;SDS011;54596;43.216;27.904;2022-10-15T01:03:41;8.32;;;2.92;;
67798;SDS011;54596;43.216;27.904;2022-10-15T01:06:07;7.13;;;2.53;;
67798;SDS011;54596;43.216;27.904;2022-10-15T01:08:32;8.05;;;2.65;;
67798;SDS011;54596;43.216;27.904;2022-10-15T01:11:23;9.30;;;2.88;;
67798;SDS011;54596;43.216;27.904;2022-10-15T01:22:22;8.88;;;3.00;;
67798;SDS011;54596;43.216;27.904;2022-10-15T01:25:09;7.43;;;2.70;;
67798;SDS011;54596;43.216;27.904;2022-10-15T01:27:42;7.00;;;2.90;;
67798;SDS011;54596;43.216;27.904;2022-10-15T01:41:05;8.70;;;2.90;;
67798;SDS011;54596;43.216;27.904;2022-10-15T01:46:59;9.65;;;3.03;;
67798;SDS011;54596;43.216;27.904;2022-10-15T01:49:29;9.82;;;3.10;;
67798;SDS011;54596;43.216;27.904;2022-10-15T01:51:58;9.55;;;3.00;;
67798;SDS011;54596;43.216;27.904;2022-10-15T01:54:29;10.07;;;3.25;;
67798;SDS011;54596;43.216;27.904;2022-10-15T01:56:55;9.55;;;3.40;;
67798;SDS011;54596;43.216;27.904;2022-10-15T01:59:23;10.02;;;3.40;;
67798;SDS011;54596;43.216;27.904;2022-10-15T02:01:52;9.05;;;3.17;;
67798;SDS011;54596;43.216;27.904;2022-10-15T02:04:22;9.43;;;3.38;;
67798;SDS011;54596;43.216;27.904;2022-10-15T02:07:02;11.98;;;3.50;;
67798;SDS011;54596;43.216;27.904;2022-10-15T02:12:35;10.40;;;3.63;;
67798;SDS011;54596;43.216;27.904;2022-10-15T02:18:13;13.27;;;3.85;;
67798;SDS011;54596;43.216;27.904;2022-10-15T02:23:35;10.15;;;3.85;;
67798;SDS011;54596;43.216;27.904;2022-10-15T02:26:15;9.50;;;3.58;;
67798;SDS011;54596;43.216;27.904;2022-10-15T02:28:42;9.73;;;3.80;;
67798;SDS011;54596;43.216;27.904;2022-10-15T02:31:11;11.93;;;4.10;;
67798;SDS011;54596;43.216;27.904;2022-10-15T02:33:39;11.23;;;3.83;;
67798;SDS011;54596;43.216;27.904;2022-10-15T02:36:06;9.88;;;3.80;;
67798;SDS011;54596;43.216;27.904;2022-10-15T02:38:32;10.20;;;4.10;;
67798;SDS011;54596;43.216;27.904;2022-10-15T02:41:00;12.38;;;4.00;;
67798;SDS011;54596;43.216;27.904;2022-10-15T02:43:26;13.00;;;4.43;;
67798;SDS011;54596;43.216;27.904;2022-10-15T02:45:52;12.45;;;4.15;;
67798;SDS011;54596;43.216;27.904;2022-10-15T02:48:17;11.93;;;4.10;;
67798;SDS011;54596;43.216;27.904;2022-10-15T02:50:43;13.75;;;4.40;;
67798;SDS011;54596;43.216;27.904;2022-10-15T02:53:08;11.27;;;4.30;;
67798;SDS011;54596;43.216;27.904;2022-10-15T02:55:34;14.15;;;4.38;;
67798;SDS011;54596;43.216;27.904;2022-10-15T02:58:00;12.85;;;4.68;;
67798;SDS011;54596;43.216;27.904;2022-10-15T03:00:25;10.98;;;4.20;;
67798;SDS011;54596;43.216;27.904;2022-10-15T03:02:51;11.20;;;4.75;;
67798;SDS011;54596;43.216;27.904;2022-10-15T03:05:17;11.10;;;4.40;;
67798;SDS011;54596;43.216;27.904;2022-10-15T03:07:43;10.90;;;4.63;;
67798;SDS011;54596;43.216;27.904;2022-10-15T03:10:08;12.20;;;4.93;;
67798;SDS011;54596;43.216;27.904;2022-10-15T03:12:34;11.07;;;5.00;;
67798;SDS011;54596;43.216;27.904;2022-10-15T03:14:59;11.68;;;4.95;;
67798;SDS011;54596;43.216;27.904;2022-10-15T03:17:25;12.77;;;5.00;;
67798;SDS011;54596;43.216;27.904;2022-10-15T03:19:50;12.50;;;5.30;;
67798;SDS011;54596;43.216;27.904;2022-10-15T03:22:16;12.40;;;5.57;;
67798;SDS011;54596;43.216;27.904;2022-10-15T03:24:41;13.40;;;5.50;;
67798;SDS011;54596;43.216;27.904;2022-10-15T03:27:07;11.75;;;4.97;;
67798;SDS011;54596;43.216;27.904;2022-10-15T03:29:32;12.70;;;5.30;;
67798;SDS011;54596;43.216;27.904;2022-10-15T03:31:57;11.20;;;5.50;;
67798;SDS011;54596;43.216;27.904;2022-10-15T03:34:23;14.68;;;5.18;;
67798;SDS011;54596;43.216;27.904;2022-10-15T03:36:49;11.80;;;5.72;;
67798;SDS011;54596;43.216;27.904;2022-10-15T03:39:15;12.93;;;5.47;;
67798;SDS011;54596;43.216;27.904;2022-10-15T03:41:40;11.30;;;5.32;;
67798;SDS011;54596;43.216;27.904;2022-10-15T03:44:07;11.32;;;5.55;;
67798;SDS011;54596;43.216;27.904;2022-10-15T03:46:33;14.70;;;5.85;;
67798;SDS011;54596;43.216;27.904;2022-10-15T03:48:59;13.88;;;5.90;;
67798;SDS011;54596;43.216;27.904;2022-10-15T03:51:24;12.68;;;5.70;;
67798;SDS011;54596;43.216;27.904;2022-10-15T03:53:50;11.82;;;5.63;;
67798;SDS011;54596;43.216;27.904;2022-10-15T03:56:17;13.45;;;5.57;;
67798;SDS011;54596;43.216;27.904;2022-10-15T03:58:42;12.63;;;5.90;;
67798;SDS011;54596;43.216;27.904;2022-10-15T04:01:09;11.82;;;6.03;;
67798;SDS011;54596;43.216;27.904;2022-10-15T04:03:38;15.20;;;6.25;;
67798;SDS011;54596;43.216;27.904;2022-10-15T04:06:04;16.13;;;6.30;;
67798;SDS011;54596;43.216;27.904;2022-10-15T04:08:30;14.65;;;6.00;;
67798;SDS011;54596;43.216;27.904;2022-10-15T04:10:56;12.00;;;5.95;;
67798;SDS011;54596;43.216;27.904;2022-10-15T04:13:23;14.85;;;6.70;;
67798;SDS011;54596;43.216;27.904;2022-10-15T04:15:48;16.15;;;7.05;;
67798;SDS011;54596;43.216;27.904;2022-10-15T04:18:14;13.50;;;6.20;;
67798;SDS011;54596;43.216;27.904;2022-10-15T04:20:39;14.40;;;7.13;;
67798;SDS011;54596;43.216;27.904;2022-10-15T04:23:06;15.68;;;7.22;;
67798;SDS011;54596;43.216;27.904;2022-10-15T04:25:33;16.00;;;7.35;;
67798;SDS011;54596;43.216;27.904;2022-10-15T04:27:58;15.68;;;7.50;;
67798;SDS011;54596;43.216;27.904;2022-10-15T04:30:23;17.25;;;7.70;;
67798;SDS011;54596;43.216;27.904;2022-10-15T04:32:52;16.13;;;7.90;;
67798;SDS011;54596;43.216;27.904;2022-10-15T04:35:18;16.40;;;7.60;;
67798;SDS011;54596;43.216;27.904;2022-10-15T04:37:43;16.33;;;7.88;;
67798;SDS011;54596;43.216;27.904;2022-10-15T04:40:09;17.95;;;7.43;;
67798;SDS011;54596;43.216;27.904;2022-10-15T04:42:35;16.48;;;7.45;;
67798;SDS011;54596;43.216;27.904;2022-10-15T04:45:00;14.10;;;7.15;;
67798;SDS011;54596;43.216;27.904;2022-10-15T04:47:26;15.40;;;7.13;;
67798;SDS011;54596;43.216;27.904;2022-10-15T04:49:51;15.35;;;6.80;;
67798;SDS011;54596;43.216;27.904;2022-10-15T04:52:17;13.82;;;6.72;;
67798;SDS011;54596;43.216;27.904;2022-10-15T04:54:42;14.07;;;6.70;;
67798;SDS011;54596;43.216;27.904;2022-10-15T04:57:07;17.42;;;7.20;;
67798;SDS011;54596;43.216;27.904;2022-10-15T04:59:33;15.90;;;7.13;;
67798;SDS011;54596;43.216;27.904;2022-10-15T05:01:58;13.65;;;6.47;;
67798;SDS011;54596;43.216;27.904;2022-10-15T05:04:24;16.38;;;6.97;;
67798;SDS011;54596;43.216;27.904;2022-10-15T05:06:49;15.88;;;6.50;;
67798;SDS011;54596;43.216;27.904;2022-10-15T05:09:15;15.57;;;6.90;;
67798;SDS011;54596;43.216;27.904;2022-10-15T05:11:41;13.68;;;6.25;;
67798;SDS011;54596;43.216;27.904;2022-10-15T05:14:07;14.57;;;6.50;;
67798;SDS011;54596;43.216;27.904;2022-10-15T05:16:33;13.85;;;6.57;;
67798;SDS011;54596;43.216;27.904;2022-10-15T05:18:59;14.43;;;6.32;;
67798;SDS011;54596;43.216;27.904;2022-10-15T05:21:26;18.15;;;6.70;;
67798;SDS011;54596;43.216;27.904;2022-10-15T05:23:53;15.95;;;6.80;;
67798;SDS011;54596;43.216;27.904;2022-10-15T05:26:20;14.45;;;6.47;;
67798;SDS011;54596;43.216;27.904;2022-10-15T05:28:47;18.85;;;6.60;;
67798;SDS011;54596;43.216;27.904;2022-10-15T05:31:14;14.25;;;6.25;;
67798;SDS011;54596;43.216;27.904;2022-10-15T05:33:42;13.57;;;6.65;;
67798;SDS011;54596;43.216;27.904;2022-10-15T05:36:15;17.48;;;7.30;;
67798;SDS011;54596;43.216;27.904;2022-10-15T05:38:51;18.73;;;7.40;;
67798;SDS011;54596;43.216;27.904;2022-10-15T05:41:19;17.17;;;7.60;;
67798;SDS011;54596;43.216;27.904;2022-10-15T05:43:46;15.02;;;6.50;;
67798;SDS011;54596;43.216;27.904;2022-10-15T05:46:12;14.45;;;6.00;;
67798;SDS011;54596;43.216;27.904;2022-10-15T05:48:38;15.50;;;7.15;;
67798;SDS011;54596;43.216;27.904;2022-10-15T05:51:04;13.20;;;5.60;;
67798;SDS011;54596;43.216;27.904;2022-10-15T05:53:32;15.90;;;6.50;;
67798;SDS011;54596;43.216;27.904;2022-10-15T05:55:58;19.33;;;7.00;;
67798;SDS011;54596;43.216;27.904;2022-10-15T05:58:24;16.63;;;7.05;;
67798;SDS011;54596;43.216;27.904;2022-10-15T06:00:58;16.13;;;6.00;;
67798;SDS011;54596;43.216;27.904;2022-10-15T06:03:25;12.45;;;5.30;;
67798;SDS011;54596;43.216;27.904;2022-10-15T06:05:52;15.10;;;5.60;;
67798;SDS011;54596;43.216;27.904;2022-10-15T06:08:18;11.80;;;5.20;;
67798;SDS011;54596;43.216;27.904;2022-10-15T06:10:44;16.48;;;5.75;;
67798;SDS011;54596;43.216;27.904;2022-10-15T06:13:10;15.88;;;5.53;;
67798;SDS011;54596;43.216;27.904;2022-10-15T06:15:40;17.77;;;6.05;;
67798;SDS011;54596;43.216;27.904;2022-10-15T06:18:06;13.93;;;5.72;;
67798;SDS011;54596;43.216;27.904;2022-10-15T06:20:33;13.02;;;5.00;;
67798;SDS011;54596;43.216;27.904;2022-10-15T06:22:59;15.32;;;5.10;;
67798;SDS011;54596;43.216;27.904;2022-10-15T06:25:25;15.25;;;4.50;;
67798;SDS011;54596;43.216;27.904;2022-10-15T06:27:51;12.15;;;4.78;;
67798;SDS011;54596;43.216;27.904;2022-10-15T06:30:17;14.43;;;4.38;;
67798;SDS011;54596;43.216;27.904;2022-10-15T06:32:50;14.57;;;4.72;;
67798;SDS011;54596;43.216;27.904;2022-10-15T06:35:19;14.57;;;5.10;;
67798;SDS011;54596;43.216;27.904;2022-10-15T06:37:46;14.27;;;4.82;;
67798;SDS011;54596;43.216;27.904;2022-10-15T06:40:13;14.38;;;4.15;;
67798;SDS011;54596;43.216;27.904;2022-10-15T06:42:39;17.40;;;5.70;;
67798;SDS011;54596;43.216;27.904;2022-10-15T06:45:05;12.77;;;5.13;;
67798;SDS011;54596;43.216;27.904;2022-10-15T06:47:32;12.82;;;5.20;;
67798;SDS011;54596;43.216;27.904;2022-10-15T06:49:58;13.75;;;6.38;;
67798;SDS011;54596;43.216;27.904;2022-10-15T06:52:24;14.85;;;5.05;;
67798;SDS011;54596;43.216;27.904;2022-10-15T06:54:50;9.95;;;4.32;;
67798;SDS011;54596;43.216;27.904;2022-10-15T06:57:15;11.35;;;4.63;;
67798;SDS011;54596;43.216;27.904;2022-10-15T06:59:41;13.38;;;4.60;;
67798;SDS011;54596;43.216;27.904;2022-10-15T07:02:09;11.05;;;4.00;;
67798;SDS011;54596;43.216;27.904;2022-10-15T07:04:35;18.27;;;4.90;;
67798;SDS011;54596;43.216;27.904;2022-10-15T07:07:00;12.65;;;4.22;;
67798;SDS011;54596;43.216;27.904;2022-10-15T07:09:26;13.25;;;4.65;;
67798;SDS011;54596;43.216;27.904;2022-10-15T07:11:51;12.18;;;4.20;;
67798;SDS011;54596;43.216;27.904;2022-10-15T07:14:17;10.23;;;4.13;;
67798;SDS011;54596;43.216;27.904;2022-10-15T07:16:42;11.23;;;3.95;;
67798;SDS011;54596;43.216;27.904;2022-10-15T07:19:08;13.00;;;4.30;;
67798;SDS011;54596;43.216;27.904;2022-10-15T07:21:34;12.20;;;4.13;;
67798;SDS011;54596;43.216;27.904;2022-10-15T07:23:59;11.57;;;3.85;;
67798;SDS011;54596;43.216;27.904;2022-10-15T07:26:25;11.80;;;4.88;;
67798;SDS011;54596;43.216;27.904;2022-10-15T07:28:53;11.93;;;4.30;;
67798;SDS011;54596;43.216;27.904;2022-10-15T07:31:19;11.88;;;4.07;;
67798;SDS011;54596;43.216;27.904;2022-10-15T07:33:45;11.10;;;4.20;;
67798;SDS011;54596;43.216;27.904;2022-10-15T07:36:10;11.75;;;4.30;;
67798;SDS011;54596;43.216;27.904;2022-10-15T07:38:37;11.40;;;4.07;;
67798;SDS011;54596;43.216;27.904;2022-10-15T07:41:04;13.13;;;4.32;;
67798;SDS011;54596;43.216;27.904;2022-10-15T07:43:31;12.23;;;3.95;;
67798;SDS011;54596;43.216;27.904;2022-10-15T07:45:58;12.93;;;5.10;;
67798;SDS011;54596;43.216;27.904;2022-10-15T07:48:23;10.98;;;4.47;;
67798;SDS011;54596;43.216;27.904;2022-10-15T07:50:55;12.38;;;4.82;;
67798;SDS011;54596;43.216;27.904;2022-10-15T07:53:26;14.50;;;4.47;;
67798;SDS011;54596;43.216;27.904;2022-10-15T07:55:52;16.73;;;5.05;;
67798;SDS011;54596;43.216;27.904;2022-10-15T07:58:18;12.35;;;4.20;;
67798;SDS011;54596;43.216;27.904;2022-10-15T08:00:44;12.38;;;4.10;;
67798;SDS011;54596;43.216;27.904;2022-10-15T08:03:09;11.05;;;4.13;;
67798;SDS011;54596;43.216;27.904;2022-10-15T08:05:35;15.00;;;4.53;;
67798;SDS011;54596;43.216;27.904;2022-10-15T08:08:00;13.63;;;4.68;;
67798;SDS011;54596;43.216;27.904;2022-10-15T08:10:26;12.68;;;4.40;;
67798;SDS011;54596;43.216;27.904;2022-10-15T08:12:52;11.05;;;4.30;;
67798;SDS011;54596;43.216;27.904;2022-10-15T08:15:18;12.40;;;4.90;;
67798;SDS011;54596;43.216;27.904;2022-10-15T08:17:43;12.88;;;5.60;;
67798;SDS011;54596;43.216;27.904;2022-10-15T08:20:09;12.95;;;6.68;;
67798;SDS011;54596;43.216;27.904;2022-10-15T08:22:35;12.75;;;6.93;;
67798;SDS011;54596;43.216;27.904;2022-10-15T08:25:01;17.52;;;8.18;;
67798;SDS011;54596;43.216;27.904;2022-10-15T08:27:26;18.83;;;10.00;;
67798;SDS011;54596;43.216;27.904;2022-10-15T08:29:52;17.05;;;9.40;;
67798;SDS011;54596;43.216;27.904;2022-10-15T08:32:17;15.48;;;9.02;;
67798;SDS011;54596;43.216;27.904;2022-10-15T08:34:43;14.00;;;8.43;;
67798;SDS011;54596;43.216;27.904;2022-10-15T08:37:08;13.52;;;7.60;;
67798;SDS011;54596;43.216;27.904;2022-10-15T08:39:34;15.48;;;6.97;;
67798;SDS011;54596;43.216;27.904;2022-10-15T08:42:06;13.63;;;6.50;;
67798;SDS011;54596;43.216;27.904;2022-10-15T08:44:42;11.93;;;5.82;;
67798;SDS011;54596;43.216;27.904;2022-10-15T08:50:19;10.57;;;5.22;;
67798;SDS011;54596;43.216;27.904;2022-10-15T08:52:52;10.93;;;4.93;;
67798;SDS011;54596;43.216;27.904;2022-10-15T08:55:19;9.95;;;4.75;;
67798;SDS011;54596;43.216;27.904;2022-10-15T08:58:05;12.23;;;4.53;;
67798;SDS011;54596;43.216;27.904;2022-10-15T09:01:00;11.00;;;4.45;;
67798;SDS011;54596;43.216;27.904;2022-10-15T09:14:25;11.10;;;3.47;;
67798;SDS011;54596;43.216;27.904;2022-10-15T09:16:54;10.55;;;4.07;;
67798;SDS011;54596;43.216;27.904;2022-10-15T09:19:21;10.40;;;3.67;;
67798;SDS011;54596;43.216;27.904;2022-10-15T09:21:49;9.57;;;3.42;;
67798;SDS011;54596;43.216;27.904;2022-10-15T09:24:27;10.52;;;3.20;;
67798;SDS011;54596;43.216;27.904;2022-10-15T09:29:57;12.48;;;3.13;;
67798;SDS011;54596;43.216;27.904;2022-10-15T09:32:51;10.15;;;3.08;;
67798;SDS011;54596;43.216;27.904;2022-10-15T09:43:26;11.20;;;3.00;;
67798;SDS011;54596;43.216;27.904;2022-10-15T09:45:58;10.98;;;3.10;;
67798;SDS011;54596;43.216;27.904;2022-10-15T09:48:24;14.10;;;3.38;;
67798;SDS011;54596;43.216;27.904;2022-10-15T09:50:54;16.02;;;3.60;;
67798;SDS011;54596;43.216;27.904;2022-10-15T09:56:23;11.27;;;3.42;;
67798;SDS011;54596;43.216;27.904;2022-10-15T09:58:56;9.95;;;3.08;;
67798;SDS011;54596;43.216;27.904;2022-10-15T10:01:23;11.25;;;3.08;;
67798;SDS011;54596;43.216;27.904;2022-10-15T10:03:54;12.40;;;3.03;;
67798;SDS011;54596;43.216;27.904;2022-10-15T10:06:49;8.85;;;2.95;;
67798;SDS011;54596;43.216;27.904;2022-10-15T10:09:18;10.25;;;2.85;;
67798;SDS011;54596;43.216;27.904;2022-10-15T10:11:47;10.75;;;3.35;;
67798;SDS011;54596;43.216;27.904;2022-10-15T10:14:31;12.50;;;3.03;;
67798;SDS011;54596;43.216;27.904;2022-10-15T10:17:03;12.48;;;3.40;;
67798;SDS011;54596;43.216;27.904;2022-10-15T10:19:36;8.88;;;2.85;;
67798;SDS011;54596;43.216;27.904;2022-10-15T10:22:11;11.20;;;3.15;;
67798;SDS011;54596;43.216;27.904;2022-10-15T10:24:39;12.55;;;3.47;;
67798;SDS011;54596;43.216;27.904;2022-10-15T10:27:11;9.68;;;2.85;;
67798;SDS011;54596;43.216;27.904;2022-10-15T10:29:52;10.50;;;3.15;;
67798;SDS011;54596;43.216;27.904;2022-10-15T10:32:22;9.93;;;3.03;;
67798;SDS011;54596;43.216;27.904;2022-10-15T10:34:52;12.73;;;3.50;;
67798;SDS011;54596;43.216;27.904;2022-10-15T10:37:18;9.88;;;2.90;;
67798;SDS011;54596;43.216;27.904;2022-10-15T10:39:44;14.18;;;3.30;;
67798;SDS011;54596;43.216;27.904;2022-10-15T10:44:41;10.38;;;3.00;;
67798;SDS011;54596;43.216;27.904;2022-10-15T10:47:15;16.55;;;3.50;;
67798;SDS011;54596;43.216;27.904;2022-10-15T10:49:52;12.55;;;3.00;;
67798;SDS011;54596;43.216;27.904;2022-10-15T10:57:43;10.38;;;2.83;;
67798;SDS011;54596;43.216;27.904;2022-10-15T11:03:03;8.85;;;3.03;;
67798;SDS011;54596;43.216;27.904;2022-10-15T11:05:30;10.57;;;3.25;;
67798;SDS011;54596;43.216;27.904;2022-10-15T11:11:09;10.27;;;3.00;;
67798;SDS011;54596;43.216;27.904;2022-10-15T11:16:39;9.82;;;2.97;;
67798;SDS011;54596;43.216;27.904;2022-10-15T11:19:33;9.43;;;2.70;;
67798;SDS011;54596;43.216;27.904;2022-10-15T11:30:18;12.07;;;3.10;;
67798;SDS011;54596;43.216;27.904;2022-10-15T11:36:35;10.20;;;2.75;;
67798;SDS011;54596;43.216;27.904;2022-10-15T11:43:57;11.82;;;2.80;;
67798;SDS011;54596;43.216;27.904;2022-10-15T11:58:38;10.30;;;3.00;;
67798;SDS011;54596;43.216;27.904;2022-10-15T12:01:11;8.45;;;2.88;;
67798;SDS011;54596;43.216;27.904;2022-10-15T12:03:50;11.95;;;3.60;;
67798;SDS011;54596;43.216;27.904;2022-10-15T12:06:21;10.38;;;3.30;;
67798;SDS011;54596;43.216;27.904;2022-10-15T12:08:51;13.77;;;3.67;;
67798;SDS011;54596;43.216;27.904;2022-10-15T12:16:57;14.00;;;4.82;;
67798;SDS011;54596;43.216;27.904;2022-10-15T12:19:45;9.50;;;3.90;;
67798;SDS011;54596;43.216;27.904;2022-10-15T12:22:30;16.20;;;5.10;;
67798;SDS011;54596;43.216;27.904;2022-10-15T12:25:01;11.43;;;4.00;;
67798;SDS011;54596;43.216;27.904;2022-10-15T12:27:29;12.40;;;3.78;;
67798;SDS011;54596;43.216;27.904;2022-10-15T12:32:30;14.05;;;3.80;;
67798;SDS011;54596;43.216;27.904;2022-10-15T12:35:02;11.70;;;3.35;;
67798;SDS011;54596;43.216;27.904;2022-10-15T12:37:31;9.38;;;2.85;;
67798;SDS011;54596;43.216;27.904;2022-10-15T12:40:22;9.35;;;3.20;;
67798;SDS011;54596;43.216;27.904;2022-10-15T12:42:58;14.98;;;3.80;;
67798;SDS011;54596;43.216;27.904;2022-10-15T12:45:32;9.63;;;3.22;;
67798;SDS011;54596;43.216;27.904;2022-10-15T12:50:29;13.43;;;3.70;;
67798;SDS011;54596;43.216;27.904;2022-10-15T12:53:01;11.38;;;3.33;;
67798;SDS011;54596;43.216;27.904;2022-10-15T12:55:33;8.98;;;3.30;;
67798;SDS011;54596;43.216;27.904;2022-10-15T12:58:05;11.07;;;3.78;;
67798;SDS011;54596;43.216;27.904;2022-10-15T13:03:38;10.20;;;3.43;;
67798;SDS011;54596;43.216;27.904;2022-10-15T13:11:23;11.55;;;3.60;;
67798;SDS011;54596;43.216;27.904;2022-10-15T13:13:53;11.90;;;3.47;;
67798;SDS011;54596;43.216;27.904;2022-10-15T13:16:23;12.25;;;3.65;;
67798;SDS011;54596;43.216;27.904;2022-10-15T13:18:49;11.77;;;3.95;;
67798;SDS011;54596;43.216;27.904;2022-10-15T13:21:17;13.52;;;4.38;;
67798;SDS011;54596;43.216;27.904;2022-10-15T13:23:46;13.65;;;4.10;;
67798;SDS011;54596;43.216;27.904;2022-10-15T13:26:20;16.35;;;4.72;;
67798;SDS011;54596;43.216;27.904;2022-10-15T13:28:50;12.57;;;4.00;;
67798;SDS011;54596;43.216;27.904;2022-10-15T13:33:46;11.20;;;3.65;;
67798;SDS011;54596;43.216;27.904;2022-10-15T13:36:19;13.02;;;3.55;;
67798;SDS011;54596;43.216;27.904;2022-10-15T13:41:45;14.32;;;3.70;;
67798;SDS011;54596;43.216;27.904;2022-10-15T13:44:18;13.55;;;3.53;;
67798;SDS011;54596;43.216;27.904;2022-10-15T13:46:45;14.00;;;3.17;;
67798;SDS011;54596;43.216;27.904;2022-10-15T13:49:11;13.80;;;3.40;;
67798;SDS011;54596;43.216;27.904;2022-10-15T13:51:46;11.82;;;3.72;;
67798;SDS011;54596;43.216;27.904;2022-10-15T13:54:25;14.55;;;4.03;;
67798;SDS011;54596;43.216;27.904;2022-10-15T13:56:56;9.80;;;3.47;;
67798;SDS011;54596;43.216;27.904;2022-10-15T13:59:26;11.18;;;3.30;;
67798;SDS011;54596;43.216;27.904;2022-10-15T14:01:55;12.50;;;3.38;;
67798;SDS011;54596;43.216;27.904;2022-10-15T14:04:25;10.55;;;3.67;;
67798;SDS011;54596;43.216;27.904;2022-10-15T14:06:55;11.07;;;3.55;;
67798;SDS011;54596;43.216;27.904;2022-10-15T14:09:44;12.82;;;4.15;;
67798;SDS011;54596;43.216;27.904;2022-10-15T14:12:11;14.80;;;4.00;;
67798;SDS011;54596;43.216;27.904;2022-10-15T14:14:40;13.70;;;4.10;;
67798;SDS011;54596;43.216;27.904;2022-10-15T14:17:19;13.45;;;3.53;;
67798;SDS011;54596;43.216;27.904;2022-10-15T14:19:48;13.20;;;3.38;;
67798;SDS011;54596;43.216;27.904;2022-10-15T14:22:20;10.38;;;3.40;;
67798;SDS011;54596;43.216;27.904;2022-10-15T14:24:51;12.07;;;3.55;;
67798;SDS011;54596;43.216;27.904;2022-10-15T14:27:24;11.98;;;3.30;;
67798;SDS011;54596;43.216;27.904;2022-10-15T14:29:54;12.38;;;3.92;;
67798;SDS011;54596;43.216;27.904;2022-10-15T14:34:47;10.27;;;3.50;;
67798;SDS011;54596;43.216;27.904;2022-10-15T14:37:27;12.35;;;3.42;;
67798;SDS011;54596;43.216;27.904;2022-10-15T14:42:36;16.42;;;3.83;;
67798;SDS011;54596;43.216;27.904;2022-10-15T14:45:25;10.88;;;3.72;;
67798;SDS011;54596;43.216;27.904;2022-10-15T14:47:53;10.18;;;3.05;;
67798;SDS011;54596;43.216;27.904;2022-10-15T14:50:40;15.27;;;4.10;;
67798;SDS011;54596;43.216;27.904;2022-10-15T14:53:07;12.63;;;4.45;;
67798;SDS011;54596;43.216;27.904;2022-10-15T14:55:36;13.73;;;4.20;;
67798;SDS011;54596;43.216;27.904;2022-10-15T14:58:07;14.40;;;4.88;;
67798;SDS011;54596;43.216;27.904;2022-10-15T15:00:43;15.07;;;4.60;;
67798;SDS011;54596;43.216;27.904;2022-10-15T15:03:14;11.80;;;4.22;;
67798;SDS011;54596;43.216;27.904;2022-10-15T15:08:09;12.95;;;4.60;;
67798;SDS011;54596;43.216;27.904;2022-10-15T15:10:36;14.55;;;4.45;;
67798;SDS011;54596;43.216;27.904;2022-10-15T15:13:01;13.93;;;4.07;;
67798;SDS011;54596;43.216;27.904;2022-10-15T15:15:27;12.90;;;4.50;;
67798;SDS011;54596;43.216;27.904;2022-10-15T15:17:52;14.57;;;3.90;;
67798;SDS011;54596;43.216;27.904;2022-10-15T15:20:18;10.65;;;3.60;;
67798;SDS011;54596;43.216;27.904;2022-10-15T15:22:45;14.25;;;4.03;;
67798;SDS011;54596;43.216;27.904;2022-10-15T15:25:17;14.57;;;4.25;;
67798;SDS011;54596;43.216;27.904;2022-10-15T15:27:45;11.45;;;3.95;;
67798;SDS011;54596;43.216;27.904;2022-10-15T15:30:19;14.93;;;4.82;;
67798;SDS011;54596;43.216;27.904;2022-10-15T15:32:46;11.43;;;3.90;;
67798;SDS011;54596;43.216;27.904;2022-10-15T15:35:18;13.80;;;4.65;;
67798;SDS011;54596;43.216;27.904;2022-10-15T15:38:01;15.40;;;5.03;;
67798;SDS011;54596;43.216;27.904;2022-10-15T15:40:26;16.65;;;4.40;;
67798;SDS011;54596;43.216;27.904;2022-10-15T15:42:52;16.73;;;6.25;;
67798;SDS011;54596;43.216;27.904;2022-10-15T15:45:24;14.38;;;5.72;;
67798;SDS011;54596;43.216;27.904;2022-10-15T15:47:51;15.30;;;6.13;;
67798;SDS011;54596;43.216;27.904;2022-10-15T15:50:17;13.23;;;4.65;;
67798;SDS011;54596;43.216;27.904;2022-10-15T15:52:44;11.30;;;4.20;;
67798;SDS011;54596;43.216;27.904;2022-10-15T15:55:10;11.77;;;4.43;;
67798;SDS011;54596;43.216;27.904;2022-10-15T15:57:36;11.02;;;4.07;;
67798;SDS011;54596;43.216;27.904;2022-10-15T16:00:03;11.38;;;3.80;;
67798;SDS011;54596;43.216;27.904;2022-10-15T16:02:30;17.10;;;4.50;;
67798;SDS011;54596;43.216;27.904;2022-10-15T16:04:56;12.30;;;4.00;;
67798;SDS011;54596;43.216;27.904;2022-10-15T16:07:21;11.40;;;4.10;;
67798;SDS011;54596;43.216;27.904;2022-10-15T16:09:47;11.82;;;3.80;;
67798;SDS011;54596;43.216;27.904;2022-10-15T16:12:12;11.68;;;4.07;;
67798;SDS011;54596;43.216;27.904;2022-10-15T16:14:38;10.00;;;3.80;;
67798;SDS011;54596;43.216;27.904;2022-10-15T16:17:03;12.88;;;4.15;;
67798;SDS011;54596;43.216;27.904;2022-10-15T16:19:29;9.63;;;3.35;;
67798;SDS011;54596;43.216;27.904;2022-10-15T16:21:54;11.63;;;3.40;;
67798;SDS011;54596;43.216;27.904;2022-10-15T16:24:20;11.23;;;3.90;;
67798;SDS011;54596;43.216;27.904;2022-10-15T16:26:45;11.55;;;3.38;;
67798;SDS011;54596;43.216;27.904;2022-10-15T16:29:11;12.38;;;3.33;;
67798;SDS011;54596;43.216;27.904;2022-10-15T16:31:36;8.68;;;2.97;;
67798;SDS011;54596;43.216;27.904;2022-10-15T16:34:02;8.98;;;3.13;;
67798;SDS011;54596;43.216;27.904;2022-10-15T16:36:29;9.45;;;3.15;;
67798;SDS011;54596;43.216;27.904;2022-10-15T16:38:55;12.13;;;4.60;;
67798;SDS011;54596;43.216;27.904;2022-10-15T16:41:20;10.90;;;3.30;;
67798;SDS011;54596;43.216;27.904;2022-10-15T16:43:46;10.82;;;3.00;;
67798;SDS011;54596;43.216;27.904;2022-10-15T16:46:12;10.43;;;3.45;;
67798;SDS011;54596;43.216;27.904;2022-10-15T16:48:38;10.75;;;4.28;;
67798;SDS011;54596;43.216;27.904;2022-10-15T16:51:11;9.68;;;3.28;;